Time;durP1;ratioP1;P1;durP2;ratioP2;P2;SDS_P1;SDS_P2;PMS_P1;PMS_P2;Temp;Humidity;BMP_temperature;BMP_pressure;BME280_temperature;BME280_humidity;BME280_pressure;Samples;Min_cycle;Max_cycle;Signal;HPM_P1;HPM_P2
2023/10/30 00:01:09;;;;;;;5.83;2.63;;;;;;;;;;5026151;28;20628;-80
2023/10/30 00:03:35;;;;;;;5.80;2.47;;;;;;;;;;5031730;28;20220;-80
2023/10/30 00:06:02;;;;;;;6.47;2.30;;;;;;;;;;5029258;28;20178;-80
2023/10/30 00:08:29;;;;;;;6.67;2.97;;;;;;;;;;5015835;28;20456;-79
2023/10/30 00:10:55;;;;;;;5.43;2.37;;;;;;;;;;5025594;28;20183;-79
2023/10/30 00:13:21;;;;;;;5.77;2.53;;;;;;;;;;5030204;28;20547;-79
2023/10/30 00:15:47;;;;;;;6.43;2.50;;;;;;;;;;5028136;28;20658;-80
2023/10/30 00:18:13;;;;;;;6.83;2.47;;;;;;;;;;5030986;28;20249;-80
2023/10/30 00:20:40;;;;;;;4.80;2.23;;;;;;;;;;5017578;28;20679;-80
2023/10/30 00:23:06;;;;;;;5.97;1.83;;;;;;;;;;5028052;28;20226;-79
2023/10/30 00:25:32;;;;;;;3.83;2.20;;;;;;;;;;5035783;28;20179;-80
2023/10/30 00:28:00;;;;;;;4.67;2.20;;;;;;;;;;5030285;28;20194;-79
2023/10/30 00:30:27;;;;;;;14.20;5.93;;;;;;;;;;5014781;28;20187;-80
2023/10/30 00:32:53;;;;;;;4.83;2.73;;;;;;;;;;5024876;28;20680;-80
2023/10/30 00:35:19;;;;;;;6.23;2.90;;;;;;;;;;5029612;28;20597;-79
2023/10/30 00:37:45;;;;;;;4.17;1.80;;;;;;;;;;5031270;28;20416;-79
2023/10/30 00:40:12;;;;;;;2.30;1.20;;;;;;;;;;5031524;28;20215;-80
2023/10/30 00:42:38;;;;;;;5.23;1.90;;;;;;;;;;5006312;28;20729;-80
2023/10/30 00:45:05;;;;;;;6.77;2.80;;;;;;;;;;5029761;28;20650;-79
2023/10/30 00:47:31;;;;;;;3.80;1.70;;;;;;;;;;5029831;28;20190;-80
2023/10/30 00:49:58;;;;;;;3.77;1.60;;;;;;;;;;5032299;28;20190;-80
2023/10/30 00:52:24;;;;;;;2.03;1.10;;;;;;;;;;5012372;28;20636;-80
2023/10/30 00:54:50;;;;;;;2.60;1.37;;;;;;;;;;5028454;28;20234;-80
2023/10/30 00:57:16;;;;;;;3.33;1.30;;;;;;;;;;5030364;28;20229;-80
2023/10/30 00:59:43;;;;;;;2.17;1.33;;;;;;;;;;5012495;28;20621;-80
2023/10/30 01:02:09;;;;;;;3.20;1.70;;;;;;;;;;5014722;28;20207;-80
2023/10/30 01:04:35;;;;;;;4.30;1.93;;;;;;;;;;5030604;28;20183;-80
2023/10/30 01:07:02;;;;;;;4.27;1.90;;;;;;;;;;5014377;28;20207;-79
2023/10/30 01:09:29;;;;;;;3.13;1.50;;;;;;;;;;5027734;28;20535;-80
2023/10/30 01:11:55;;;;;;;2.27;1.37;;;;;;;;;;5031768;28;20231;-80
2023/10/30 01:14:21;;;;;;;3.07;0.90;;;;;;;;;;5027398;28;20193;-79
2023/10/30 01:16:49;;;;;;;3.43;1.73;;;;;;;;;;5030379;28;20187;-80
2023/10/30 01:19:15;;;;;;;2.53;1.10;;;;;;;;;;5028483;28;20206;-80
2023/10/30 01:21:42;;;;;;;8.00;3.87;;;;;;;;;;5027158;28;20582;-79
2023/10/30 01:24:08;;;;;;;4.77;1.60;;;;;;;;;;5027643;28;20551;-79
2023/10/30 01:26:34;;;;;;;3.73;1.60;;;;;;;;;;5028564;28;20561;-80
2023/10/30 01:29:01;;;;;;;8.13;4.63;;;;;;;;;;5027495;28;20179;-80
2023/10/30 01:31:27;;;;;;;10.00;3.90;;;;;;;;;;5026530;28;20221;-80
2023/10/30 01:33:57;;;;;;;2.73;1.60;;;;;;;;;;5026799;28;20182;-80
2023/10/30 01:36:23;;;;;;;7.97;3.87;;;;;;;;;;5024793;28;20259;-80
2023/10/30 01:38:50;;;;;;;4.67;2.43;;;;;;;;;;5010267;28;20410;-79
2023/10/30 01:41:16;;;;;;;7.80;3.53;;;;;;;;;;5028662;28;20222;-80
2023/10/30 01:43:42;;;;;;;4.23;1.40;;;;;;;;;;5026962;28;20268;-80
2023/10/30 01:46:08;;;;;;;6.27;1.47;;;;;;;;;;5028518;28;20175;-82
2023/10/30 01:48:35;;;;;;;4.10;1.73;;;;;;;;;;5025623;28;20237;-81
2023/10/30 01:51:03;;;;;;;6.50;1.87;;;;;;;;;;5029536;28;20338;-80
2023/10/30 01:53:30;;;;;;;4.97;1.70;;;;;;;;;;5026740;28;20191;-80
2023/10/30 01:55:57;;;;;;;5.23;1.50;;;;;;;;;;5012850;28;20182;-80
2023/10/30 01:58:24;;;;;;;7.70;3.73;;;;;;;;;;5011212;28;20349;-82
2023/10/30 02:00:50;;;;;;;4.60;1.90;;;;;;;;;;5026221;28;20289;-80
2023/10/30 02:03:17;;;;;;;3.80;1.60;;;;;;;;;;5028020;28;20178;-80
2023/10/30 02:05:44;;;;;;;4.77;1.83;;;;;;;;;;5024578;28;20241;-81
2023/10/30 02:08:11;;;;;;;4.10;1.80;;;;;;;;;;5010542;28;20595;-80
2023/10/30 02:10:37;;;;;;;5.00;2.63;;;;;;;;;;5010731;28;20194;-80
2023/10/30 02:13:05;;;;;;;5.50;1.97;;;;;;;;;;5010943;28;20207;-80
2023/10/30 02:15:31;;;;;;;15.27;6.83;;;;;;;;;;5027580;28;20187;-81
2023/10/30 02:17:57;;;;;;;14.13;5.30;;;;;;;;;;5026980;28;20737;-80
2023/10/30 02:20:25;;;;;;;4.50;1.40;;;;;;;;;;5026373;28;20237;-81
2023/10/30 02:22:52;;;;;;;4.97;1.30;;;;;;;;;;5010649;28;20202;-80
2023/10/30 02:25:18;;;;;;;3.67;1.30;;;;;;;;;;5024532;28;20187;-80
2023/10/30 02:27:45;;;;;;;4.53;1.40;;;;;;;;;;5026131;28;20239;-80
2023/10/30 02:30:11;;;;;;;3.20;1.20;;;;;;;;;;5011354;28;20645;-79
2023/10/30 02:32:42;;;;;;;4.90;1.10;;;;;;;;;;5009828;28;20294;-80
2023/10/30 02:35:11;;;;;;;3.27;1.17;;;;;;;;;;5027911;28;20186;-79
2023/10/30 02:37:37;;;;;;;4.17;1.30;;;;;;;;;;5026814;28;20575;-81
2023/10/30 02:40:04;;;;;;;3.53;1.20;;;;;;;;;;5025855;28;20214;-80
2023/10/30 02:42:31;;;;;;;5.07;1.83;;;;;;;;;;5027916;28;20200;-80
2023/10/30 02:44:58;;;;;;;4.10;1.90;;;;;;;;;;5028740;28;20199;-82
2023/10/30 02:47:24;;;;;;;5.97;2.10;;;;;;;;;;5027312;28;20205;-80
2023/10/30 02:49:51;;;;;;;6.60;1.80;;;;;;;;;;5025022;28;20189;-80
2023/10/30 02:52:20;;;;;;;10.17;3.10;;;;;;;;;;5028074;28;20242;-80
2023/10/30 02:54:46;;;;;;;4.03;1.40;;;;;;;;;;5005377;28;20624;-80
2023/10/30 02:57:15;;;;;;;5.83;1.60;;;;;;;;;;5027917;28;20507;-79
2023/10/30 02:59:42;;;;;;;6.23;2.03;;;;;;;;;;5026573;28;20212;-81
2023/10/30 03:02:10;;;;;;;7.67;2.60;;;;;;;;;;5027505;28;20198;-83
2023/10/30 03:04:36;;;;;;;8.23;3.30;;;;;;;;;;5028095;28;20287;-82
2023/10/30 03:07:02;;;;;;;4.73;1.70;;;;;;;;;;5029153;28;20182;-81
2023/10/30 03:09:30;;;;;;;3.27;1.30;;;;;;;;;;5007837;28;20183;-79
2023/10/30 03:11:56;;;;;;;6.63;2.57;;;;;;;;;;5009982;28;20259;-80
2023/10/30 03:14:22;;;;;;;4.13;1.50;;;;;;;;;;5022688;28;20266;-83
2023/10/30 03:16:48;;;;;;;5.00;2.13;;;;;;;;;;5024891;28;20171;-81
2023/10/30 03:19:15;;;;;;;6.40;2.23;;;;;;;;;;5026086;28;20183;-80
2023/10/30 03:21:41;;;;;;;7.37;3.03;;;;;;;;;;5025660;28;20210;-80
2023/10/30 03:24:07;;;;;;;6.47;2.20;;;;;;;;;;5013599;28;20708;-79
2023/10/30 03:26:33;;;;;;;4.13;1.70;;;;;;;;;;5031560;28;20219;-79
2023/10/30 03:28:59;;;;;;;8.03;2.50;;;;;;;;;;5013436;28;20278;-80
2023/10/30 03:31:26;;;;;;;4.57;2.47;;;;;;;;;;5031860;28;20213;-80
2023/10/30 03:33:53;;;;;;;6.30;3.10;;;;;;;;;;5008478;28;20586;-80
2023/10/30 03:36:22;;;;;;;5.63;2.20;;;;;;;;;;5029175;28;20233;-80
2023/10/30 03:38:50;;;;;;;4.20;1.90;;;;;;;;;;5030936;28;20175;-81
2023/10/30 03:41:16;;;;;;;10.77;4.33;;;;;;;;;;5028623;28;20284;-82
2023/10/30 03:43:46;;;;;;;7.23;3.00;;;;;;;;;;5014393;28;20179;-80
2023/10/30 03:46:12;;;;;;;4.93;2.60;;;;;;;;;;5031072;28;20179;-80
2023/10/30 03:48:38;;;;;;;5.23;2.10;;;;;;;;;;4996300;28;20250;-79
2023/10/30 03:51:05;;;;;;;3.90;1.70;;;;;;;;;;5026195;28;20180;-81
2023/10/30 03:53:32;;;;;;;5.70;1.47;;;;;;;;;;5030327;28;20183;-80
2023/10/30 03:55:58;;;;;;;5.33;2.17;;;;;;;;;;5031791;28;20184;-80
2023/10/30 03:58:25;;;;;;;6.90;2.63;;;;;;;;;;5029303;28;20193;-82
2023/10/30 04:00:51;;;;;;;2.80;1.17;;;;;;;;;;5029492;28;20211;-80
2023/10/30 04:03:18;;;;;;;2.57;1.30;;;;;;;;;;5031465;28;20198;-79
2023/10/30 04:05:44;;;;;;;3.83;1.93;;;;;;;;;;5029412;28;20246;-79
2023/10/30 04:08:10;;;;;;;2.27;1.07;;;;;;;;;;5016384;28;20541;-80
2023/10/30 04:10:36;;;;;;;7.13;3.10;;;;;;;;;;5010930;28;20200;-79
2023/10/30 04:13:02;;;;;;;6.23;2.40;;;;;;;;;;5031220;28;20246;-79
2023/10/30 04:15:28;;;;;;;5.67;2.50;;;;;;;;;;5028488;28;20232;-79
2023/10/30 04:17:56;;;;;;;2.33;1.70;;;;;;;;;;5029418;28;20187;-79
2023/10/30 04:20:22;;;;;;;4.47;2.10;;;;;;;;;;5029649;28;20202;-80
2023/10/30 04:22:49;;;;;;;4.30;2.27;;;;;;;;;;5029386;28;20211;-80
2023/10/30 04:25:15;;;;;;;3.10;1.60;;;;;;;;;;5029511;28;20718;-80
2023/10/30 04:27:42;;;;;;;2.30;1.30;;;;;;;;;;5009808;28;20234;-81
2023/10/30 04:30:08;;;;;;;1.80;1.10;;;;;;;;;;5028436;28;20187;-81
2023/10/30 04:32:34;;;;;;;4.50;2.70;;;;;;;;;;5027133;28;20207;-84
2023/10/30 04:35:00;;;;;;;4.77;2.43;;;;;;;;;;5012494;28;20186;-79
2023/10/30 04:37:26;;;;;;;3.30;1.73;;;;;;;;;;5010646;28;20195;-80
2023/10/30 04:39:53;;;;;;;4.03;1.90;;;;;;;;;;5030375;28;20207;-79
2023/10/30 04:42:19;;;;;;;5.43;2.47;;;;;;;;;;5024474;28;20278;-83
2023/10/30 04:44:45;;;;;;;5.27;2.10;;;;;;;;;;5030038;28;20179;-80
2023/10/30 04:47:11;;;;;;;5.03;1.80;;;;;;;;;;5015247;28;20587;-79
2023/10/30 04:49:38;;;;;;;6.27;1.93;;;;;;;;;;5026782;28;20187;-79
2023/10/30 04:52:04;;;;;;;3.07;1.90;;;;;;;;;;5030135;28;20214;-81
2023/10/30 04:54:30;;;;;;;6.77;3.67;;;;;;;;;;5033183;28;20183;-80
2023/10/30 04:56:57;;;;;;;5.63;2.73;;;;;;;;;;5033911;28;20663;-79
2023/10/30 04:59:23;;;;;;;3.47;2.33;;;;;;;;;;5011178;28;20197;-80
2023/10/30 05:01:49;;;;;;;5.17;3.00;;;;;;;;;;5026307;28;20236;-80
2023/10/30 05:04:17;;;;;;;6.57;3.57;;;;;;;;;;5027666;28;20203;-80
2023/10/30 05:06:43;;;;;;;4.23;2.50;;;;;;;;;;5026314;28;20195;-80
2023/10/30 05:09:10;;;;;;;4.00;2.47;;;;;;;;;;5026125;28;20420;-80
2023/10/30 05:11:39;;;;;;;3.97;2.10;;;;;;;;;;5025140;28;20211;-80
2023/10/30 05:14:06;;;;;;;4.60;2.40;;;;;;;;;;5027030;28;20281;-82
2023/10/30 05:16:33;;;;;;;4.07;1.80;;;;;;;;;;5022183;28;20216;-79
2023/10/30 05:18:59;;;;;;;2.60;1.60;;;;;;;;;;5024053;28;20186;-80
2023/10/30 05:21:26;;;;;;;3.90;2.20;;;;;;;;;;5027440;28;20239;-80
2023/10/30 05:23:52;;;;;;;4.90;2.10;;;;;;;;;;5028820;28;20480;-80
2023/10/30 05:26:18;;;;;;;5.20;2.30;;;;;;;;;;5028124;28;20186;-80
2023/10/30 05:28:44;;;;;;;3.97;1.70;;;;;;;;;;5029611;28;20178;-80
2023/10/30 05:31:10;;;;;;;2.57;1.63;;;;;;;;;;5027394;28;20211;-79
2023/10/30 05:33:36;;;;;;;2.10;1.40;;;;;;;;;;5030021;28;21199;-81
2023/10/30 05:36:05;;;;;;;7.80;3.73;;;;;;;;;;5030908;28;20187;-80
2023/10/30 05:38:32;;;;;;;3.37;2.47;;;;;;;;;;5026866;28;20196;-80
2023/10/30 05:40:58;;;;;;;1.50;1.30;;;;;;;;;;5029377;28;20214;-80
2023/10/30 05:43:24;;;;;;;2.10;1.07;;;;;;;;;;5028894;28;20170;-80
2023/10/30 05:45:50;;;;;;;5.80;2.20;;;;;;;;;;5028994;28;20268;-79
2023/10/30 05:48:16;;;;;;;5.10;2.90;;;;;;;;;;5030397;28;20219;-80
2023/10/30 05:50:42;;;;;;;4.77;2.70;;;;;;;;;;5029201;28;20625;-81
2023/10/30 05:53:09;;;;;;;12.23;5.50;;;;;;;;;;5026628;28;20218;-80
2023/10/30 05:55:35;;;;;;;10.70;5.03;;;;;;;;;;5029071;28;20202;-80
2023/10/30 05:58:01;;;;;;;5.37;2.70;;;;;;;;;;5027657;28;20185;-80
2023/10/30 06:00:29;;;;;;;9.47;4.77;;;;;;;;;;5027978;28;20309;-79
2023/10/30 06:02:55;;;;;;;4.80;2.77;;;;;;;;;;5027749;28;20309;-79
2023/10/30 06:05:21;;;;;;;3.33;2.07;;;;;;;;;;5031018;28;20185;-79
2023/10/30 06:07:48;;;;;;;3.20;1.90;;;;;;;;;;4994990;28;20674;-79
2023/10/30 06:10:16;;;;;;;3.00;2.10;;;;;;;;;;5027829;28;20425;-80
2023/10/30 06:12:44;;;;;;;5.50;2.50;;;;;;;;;;5023949;28;20278;-78
2023/10/30 06:15:10;;;;;;;3.97;1.97;;;;;;;;;;5028607;28;20213;-80
2023/10/30 06:17:36;;;;;;;6.53;2.40;;;;;;;;;;5024879;28;20186;-81
2023/10/30 06:20:03;;;;;;;3.27;1.77;;;;;;;;;;5003632;28;20268;-80
2023/10/30 06:22:30;;;;;;;3.63;1.80;;;;;;;;;;5032818;28;20294;-80
2023/10/30 06:24:58;;;;;;;4.17;2.80;;;;;;;;;;5030161;28;20179;-80
2023/10/30 06:27:24;;;;;;;5.30;2.80;;;;;;;;;;5025178;28;20182;-78
2023/10/30 06:29:51;;;;;;;4.90;3.30;;;;;;;;;;5030685;28;20191;-82
2023/10/30 06:32:17;;;;;;;3.30;2.30;;;;;;;;;;5031876;28;20226;-76
2023/10/30 06:34:44;;;;;;;2.73;1.87;;;;;;;;;;5026985;28;20200;-81
2023/10/30 06:37:10;;;;;;;1.90;1.70;;;;;;;;;;5035097;28;20179;-82
2023/10/30 06:39:37;;;;;;;4.03;2.10;;;;;;;;;;5011523;28;20194;-81
2023/10/30 06:42:03;;;;;;;2.27;1.30;;;;;;;;;;5030136;28;20763;-80
2023/10/30 06:44:30;;;;;;;2.07;1.40;;;;;;;;;;5020884;28;20187;-80
2023/10/30 06:46:57;;;;;;;1.83;1.20;;;;;;;;;;5011383;28;20189;-80
2023/10/30 06:49:24;;;;;;;1.63;1.20;;;;;;;;;;5029195;28;20202;-81
2023/10/30 06:51:50;;;;;;;2.07;1.50;;;;;;;;;;5027980;28;20219;-82
2023/10/30 06:54:16;;;;;;;1.27;0.97;;;;;;;;;;5039555;28;20186;-81
2023/10/30 06:56:43;;;;;;;1.77;0.90;;;;;;;;;;5030723;28;20700;-80
2023/10/30 06:59:12;;;;;;;1.20;0.87;;;;;;;;;;5033120;28;20207;-81
2023/10/30 07:01:46;;;;;;;0.70;0.70;;;;;;;;;;5032283;28;20214;-81
2023/10/30 07:04:13;;;;;;;1.13;0.80;;;;;;;;;;5026942;28;20730;-80
2023/10/30 07:06:40;;;;;;;1.40;0.97;;;;;;;;;;5035404;28;20682;-81
2023/10/30 07:09:07;;;;;;;1.97;1.30;;;;;;;;;;5034906;28;20183;-80
2023/10/30 07:11:33;;;;;;;1.83;1.23;;;;;;;;;;5035664;28;20232;-80
2023/10/30 07:14:03;;;;;;;1.10;0.90;;;;;;;;;;5034402;28;20213;-81
2023/10/30 07:16:30;;;;;;;1.10;0.90;;;;;;;;;;5034526;28;20198;-81
2023/10/30 07:18:56;;;;;;;1.00;0.90;;;;;;;;;;5025553;28;20198;-81
2023/10/30 07:21:23;;;;;;;1.63;0.90;;;;;;;;;;5032685;28;20213;-80
2023/10/30 07:23:50;;;;;;;1.00;0.90;;;;;;;;;;5030655;28;20187;-80
2023/10/30 07:26:17;;;;;;;1.00;0.70;;;;;;;;;;5033761;28;20185;-80
2023/10/30 07:28:44;;;;;;;1.47;0.80;;;;;;;;;;5016063;28;20696;-81
2023/10/30 07:31:10;;;;;;;1.53;1.10;;;;;;;;;;5034990;28;20578;-80
2023/10/30 07:33:36;;;;;;;3.97;1.37;;;;;;;;;;5033154;28;20565;-83
2023/10/30 07:36:03;;;;;;;1.23;1.10;;;;;;;;;;5029719;28;20186;-80
2023/10/30 07:38:29;;;;;;;1.30;1.07;;;;;;;;;;5032306;28;20187;-80
2023/10/30 07:40:55;;;;;;;2.30;1.40;;;;;;;;;;5029920;28;20214;-81
2023/10/30 07:43:22;;;;;;;2.03;1.27;;;;;;;;;;5033203;28;20182;-80
2023/10/30 07:45:48;;;;;;;1.67;1.13;;;;;;;;;;5026946;28;20599;-80
2023/10/30 07:48:15;;;;;;;2.73;1.30;;;;;;;;;;5035103;28;20174;-81
2023/10/30 07:50:41;;;;;;;1.07;0.97;;;;;;;;;;5035131;28;20664;-80
2023/10/30 07:53:08;;;;;;;1.57;1.00;;;;;;;;;;5019890;28;20273;-81
2023/10/30 07:55:36;;;;;;;2.00;1.07;;;;;;;;;;5031542;28;20186;-81
2023/10/30 07:58:04;;;;;;;1.40;0.80;;;;;;;;;;5032578;28;20328;-80
2023/10/30 08:00:30;;;;;;;1.00;0.90;;;;;;;;;;5029799;28;20304;-80
2023/10/30 08:02:57;;;;;;;1.10;1.00;;;;;;;;;;5031404;28;20214;-82
2023/10/30 08:05:23;;;;;;;1.00;0.80;;;;;;;;;;5029208;28;20182;-81
2023/10/30 08:07:49;;;;;;;1.83;0.90;;;;;;;;;;5030362;28;20198;-81
2023/10/30 08:10:15;;;;;;;1.37;1.00;;;;;;;;;;5015738;28;20587;-80
2023/10/30 08:12:41;;;;;;;0.80;0.80;;;;;;;;;;5031759;28;20190;-80
2023/10/30 08:15:08;;;;;;;1.00;0.80;;;;;;;;;;5013252;28;20600;-80
2023/10/30 08:17:34;;;;;;;1.83;1.20;;;;;;;;;;5029378;28;21493;-80
2023/10/30 08:20:00;;;;;;;1.57;1.00;;;;;;;;;;5031976;28;20709;-81
2023/10/30 08:22:26;;;;;;;1.13;0.90;;;;;;;;;;5032509;28;20674;-81
2023/10/30 08:24:53;;;;;;;1.37;0.83;;;;;;;;;;5029811;28;20233;-81
2023/10/30 08:27:19;;;;;;;2.97;0.93;;;;;;;;;;5010038;28;20209;-81
2023/10/30 08:29:45;;;;;;;2.47;1.10;;;;;;;;;;5031109;28;20220;-82
2023/10/30 08:32:13;;;;;;;1.93;1.10;;;;;;;;;;5028979;28;20198;-81
2023/10/30 08:34:39;;;;;;;2.53;1.30;;;;;;;;;;5031699;28;20206;-81
2023/10/30 08:37:05;;;;;;;1.77;1.30;;;;;;;;;;5014693;28;20187;-81
2023/10/30 08:39:31;;;;;;;3.07;1.40;;;;;;;;;;5029095;28;20181;-81
2023/10/30 08:41:58;;;;;;;1.90;1.30;;;;;;;;;;5031804;28;20229;-81
2023/10/30 08:44:24;;;;;;;1.70;1.27;;;;;;;;;;5029985;28;20182;-80
2023/10/30 08:46:51;;;;;;;1.47;1.20;;;;;;;;;;5030886;28;20179;-81
2023/10/30 08:49:17;;;;;;;2.97;1.70;;;;;;;;;;5031342;28;20184;-81
2023/10/30 08:51:44;;;;;;;4.67;2.70;;;;;;;;;;5027617;28;20224;-81
2023/10/30 08:54:10;;;;;;;2.67;2.20;;;;;;;;;;5031645;28;20182;-81
2023/10/30 08:56:36;;;;;;;2.77;2.00;;;;;;;;;;5031598;28;20187;-81
2023/10/30 08:59:06;;;;;;;1.93;1.63;;;;;;;;;;5013645;28;20241;-81
2023/10/30 09:01:32;;;;;;;4.03;1.60;;;;;;;;;;5013156;28;20648;-81
2023/10/30 09:03:59;;;;;;;2.50;1.47;;;;;;;;;;5030383;28;20690;-81
2023/10/30 09:06:26;;;;;;;1.87;1.53;;;;;;;;;;5031685;28;20232;-81
2023/10/30 09:08:53;;;;;;;1.47;1.20;;;;;;;;;;5031900;28;20175;-80
2023/10/30 09:11:19;;;;;;;2.50;1.53;;;;;;;;;;5030664;28;20219;-84
2023/10/30 09:13:45;;;;;;;3.20;1.60;;;;;;;;;;5029524;28;20191;-81
2023/10/30 09:16:11;;;;;;;1.60;1.40;;;;;;;;;;5026540;28;20642;-82
2023/10/30 09:18:38;;;;;;;1.70;1.40;;;;;;;;;;5029931;28;20186;-82
2023/10/30 09:21:04;;;;;;;1.93;1.20;;;;;;;;;;5028573;28;20217;-81
2023/10/30 09:23:31;;;;;;;1.03;0.90;;;;;;;;;;5014876;28;20182;-81
2023/10/30 09:25:57;;;;;;;2.67;1.10;;;;;;;;;;5030040;28;20673;-81
2023/10/30 09:28:23;;;;;;;1.27;1.17;;;;;;;;;;5031106;28;20270;-81
2023/10/30 09:30:49;;;;;;;4.07;1.73;;;;;;;;;;5032180;28;20236;-81
2023/10/30 09:33:16;;;;;;;10.00;4.97;;;;;;;;;;5029781;28;20261;-81
2023/10/30 09:35:42;;;;;;;7.40;4.20;;;;;;;;;;5026225;28;20535;-81
2023/10/30 09:38:09;;;;;;;8.33;3.30;;;;;;;;;;5028214;28;20183;-81
2023/10/30 09:40:35;;;;;;;3.53;2.00;;;;;;;;;;5029236;28;20692;-81
2023/10/30 09:43:04;;;;;;;3.40;1.60;;;;;;;;;;5028613;28;20199;-80
2023/10/30 09:45:30;;;;;;;2.33;1.70;;;;;;;;;;5032230;28;20182;-81
2023/10/30 09:47:57;;;;;;;1.40;1.00;;;;;;;;;;5035059;28;20175;-82
2023/10/30 09:50:25;;;;;;;1.70;0.90;;;;;;;;;;5014999;28;20285;-80
2023/10/30 09:52:52;;;;;;;0.80;0.80;;;;;;;;;;5039616;28;20373;-81
2023/10/30 09:55:22;;;;;;;5.67;3.73;;;;;;;;;;5040661;28;20218;-81
2023/10/30 09:57:49;;;;;;;3.67;2.90;;;;;;;;;;5038973;28;20189;-81
2023/10/30 10:00:16;;;;;;;3.93;2.30;;;;;;;;;;5039264;28;20214;-80
2023/10/30 10:02:43;;;;;;;7.33;3.40;;;;;;;;;;5037537;28;20306;-82
2023/10/30 10:05:09;;;;;;;2.30;1.93;;;;;;;;;;5035790;28;20592;-81
2023/10/30 10:07:36;;;;;;;3.20;1.77;;;;;;;;;;5030958;28;20186;-80
2023/10/30 10:10:06;;;;;;;1.47;1.10;;;;;;;;;;5034327;28;20183;-80
2023/10/30 10:12:36;;;;;;;2.37;1.90;;;;;;;;;;5032198;28;20713;-80
2023/10/30 10:15:06;;;;;;;2.03;1.87;;;;;;;;;;5026640;28;20182;-81
2023/10/30 10:17:40;;;;;;;1.97;1.87;;;;;;;;;;5017664;28;20280;-81
2023/10/30 10:20:08;;;;;;;2.00;1.63;;;;;;;;;;5034048;28;20296;-80
2023/10/30 10:22:34;;;;;;;2.63;2.07;;;;;;;;;;5028490;28;20611;-80
2023/10/30 10:25:00;;;;;;;2.77;2.07;;;;;;;;;;5033251;28;20538;-83
2023/10/30 10:27:27;;;;;;;2.63;1.90;;;;;;;;;;5037317;28;20592;-83
2023/10/30 10:29:54;;;;;;;2.87;1.60;;;;;;;;;;5029096;28;20219;-83
2023/10/30 10:32:27;;;;;;;2.90;1.30;;;;;;;;;;5033594;28;20202;-83
2023/10/30 10:35:05;;;;;;;1.33;1.10;;;;;;;;;;5014500;28;20189;-83
2023/10/30 10:37:33;;;;;;;1.70;1.40;;;;;;;;;;5032933;28;20205;-83
2023/10/30 10:40:00;;;;;;;1.23;1.10;;;;;;;;;;5030518;28;20595;-82
2023/10/30 10:42:30;;;;;;;2.13;1.10;;;;;;;;;;5028593;28;20738;-83
2023/10/30 10:44:57;;;;;;;1.10;1.00;;;;;;;;;;5032932;28;20181;-81
2023/10/30 10:47:23;;;;;;;1.30;1.20;;;;;;;;;;5030611;28;20244;-81
2023/10/30 10:49:50;;;;;;;1.10;0.93;;;;;;;;;;5031182;28;20180;-82
2023/10/30 10:52:19;;;;;;;1.07;0.97;;;;;;;;;;5036032;28;20931;-80
2023/10/30 10:54:54;;;;;;;2.63;1.90;;;;;;;;;;5030721;28;20213;-83
2023/10/30 10:57:21;;;;;;;1.57;1.20;;;;;;;;;;5032187;28;20189;-89
2023/10/30 10:59:48;;;;;;;1.60;1.20;;;;;;;;;;5013114;28;20178;-83
2023/10/30 11:02:21;;;;;;;1.03;0.93;;;;;;;;;;5013822;28;20198;-84
2023/10/30 11:04:49;;;;;;;1.10;1.00;;;;;;;;;;5032094;28;20178;-87
2023/10/30 11:07:17;;;;;;;1.37;1.10;;;;;;;;;;5031656;28;20627;-83
2023/10/30 11:09:46;;;;;;;2.80;1.20;;;;;;;;;;5029731;28;20187;-84
2023/10/30 11:12:19;;;;;;;1.63;1.13;;;;;;;;;;5027391;28;20226;-84
2023/10/30 11:14:50;;;;;;;2.10;1.40;;;;;;;;;;5028834;28;20713;-84
2023/10/30 11:17:16;;;;;;;1.63;1.20;;;;;;;;;;5026700;28;20179;-84
2023/10/30 11:19:45;;;;;;;2.23;1.60;;;;;;;;;;5012395;28;20189;-84
2023/10/30 11:22:11;;;;;;;3.00;1.53;;;;;;;;;;5029012;28;20304;-84
2023/10/30 11:24:41;;;;;;;1.83;1.20;;;;;;;;;;5021375;28;20187;-84
2023/10/30 11:27:26;;;;;;;4.67;1.90;;;;;;;;;;5032432;28;20186;-84
2023/10/30 11:29:54;;;;;;;4.97;1.80;;;;;;;;;;5030512;28;20286;-84
2023/10/30 11:32:20;;;;;;;2.10;1.40;;;;;;;;;;5032936;28;20198;-85
2023/10/30 11:34:46;;;;;;;1.40;1.30;;;;;;;;;;5031901;28;20251;-84
2023/10/30 11:37:13;;;;;;;2.80;1.53;;;;;;;;;;5028378;28;20231;-84
2023/10/30 11:39:40;;;;;;;2.17;1.50;;;;;;;;;;5030999;28;20542;-84
2023/10/30 11:42:25;;;;;;;2.07;1.57;;;;;;;;;;5014659;28;20228;-84
2023/10/30 11:44:52;;;;;;;1.70;1.43;;;;;;;;;;5032376;28;20227;-81
2023/10/30 11:47:24;;;;;;;1.90;1.30;;;;;;;;;;5030141;28;20335;-80
2023/10/30 11:49:50;;;;;;;4.07;1.80;;;;;;;;;;5032779;28;20167;-85
2023/10/30 11:52:19;;;;;;;1.73;1.60;;;;;;;;;;5032062;28;20218;-83
2023/10/30 11:54:47;;;;;;;1.80;1.30;;;;;;;;;;5032293;28;20175;-83
2023/10/30 11:57:13;;;;;;;2.67;1.23;;;;;;;;;;5032377;28;20594;-83
2023/10/30 11:59:39;;;;;;;1.97;1.30;;;;;;;;;;5028503;28;20256;-83
2023/10/30 12:02:06;;;;;;;2.43;1.67;;;;;;;;;;4999326;28;20248;-83
2023/10/30 12:04:35;;;;;;;2.60;1.23;;;;;;;;;;5032014;28;20182;-83
2023/10/30 12:07:01;;;;;;;2.30;1.40;;;;;;;;;;5031252;28;20194;-84
2023/10/30 12:09:27;;;;;;;2.27;1.00;;;;;;;;;;5031073;28;20269;-83
2023/10/30 12:11:55;;;;;;;2.53;1.13;;;;;;;;;;5031995;28;20199;-82
2023/10/30 12:14:21;;;;;;;1.63;1.13;;;;;;;;;;5026880;28;20264;-84
2023/10/30 12:16:52;;;;;;;63.47;46.57;;;;;;;;;;5028891;28;20240;-82
2023/10/30 12:19:21;;;;;;;29.43;22.27;;;;;;;;;;5029505;28;20183;-82
2023/10/30 12:21:51;;;;;;;12.83;9.00;;;;;;;;;;5029921;28;20263;-83
2023/10/30 12:24:21;;;;;;;6.60;3.83;;;;;;;;;;5025806;28;20179;-83
2023/10/30 12:26:48;;;;;;;4.13;2.50;;;;;;;;;;5031309;28;20185;-82
2023/10/30 12:29:21;;;;;;;4.87;2.43;;;;;;;;;;5032222;28;20178;-82
2023/10/30 12:31:52;;;;;;;3.27;1.90;;;;;;;;;;5031254;28;20213;-82
2023/10/30 12:34:22;;;;;;;2.87;1.70;;;;;;;;;;5029196;28;20220;-82
2023/10/30 12:36:48;;;;;;;1.97;1.40;;;;;;;;;;5031735;28;20217;-85
2023/10/30 12:39:16;;;;;;;2.37;1.70;;;;;;;;;;5030926;28;20182;-82
2023/10/30 12:41:42;;;;;;;2.20;1.20;;;;;;;;;;5031719;28;20252;-83
2023/10/30 12:44:08;;;;;;;3.03;1.90;;;;;;;;;;5030007;28;20692;-82
2023/10/30 12:46:34;;;;;;;2.87;1.60;;;;;;;;;;5031668;28;20532;-82
2023/10/30 12:49:00;;;;;;;1.00;0.90;;;;;;;;;;5028711;28;20182;-82
2023/10/30 12:51:27;;;;;;;2.73;1.03;;;;;;;;;;5027969;28;20206;-82
2023/10/30 12:53:53;;;;;;;3.47;1.10;;;;;;;;;;5026922;28;20186;-83
2023/10/30 12:56:21;;;;;;;1.40;1.30;;;;;;;;;;5031796;28;20206;-82
2023/10/30 12:58:47;;;;;;;2.37;1.40;;;;;;;;;;5030863;28;20190;-82
2023/10/30 13:01:13;;;;;;;1.70;1.30;;;;;;;;;;5031441;28;20293;-82
2023/10/30 13:03:39;;;;;;;1.77;1.20;;;;;;;;;;5032631;28;20204;-83
2023/10/30 13:06:06;;;;;;;2.03;0.90;;;;;;;;;;5029967;28;20236;-82
2023/10/30 13:08:32;;;;;;;1.83;1.20;;;;;;;;;;5032034;28;20186;-82
2023/10/30 13:10:58;;;;;;;3.13;1.50;;;;;;;;;;5029705;28;20214;-83
2023/10/30 13:13:25;;;;;;;2.60;1.17;;;;;;;;;;5025407;28;20214;-82
2023/10/30 13:15:51;;;;;;;2.50;0.90;;;;;;;;;;5027771;28;20189;-83
2023/10/30 13:18:17;;;;;;;3.53;1.50;;;;;;;;;;5032308;28;20561;-82
2023/10/30 13:20:43;;;;;;;1.23;1.10;;;;;;;;;;5031769;28;20209;-83
2023/10/30 13:23:09;;;;;;;2.53;1.10;;;;;;;;;;5032278;28;20233;-82
2023/10/30 13:25:36;;;;;;;2.13;1.10;;;;;;;;;;5029370;28;20190;-83
2023/10/30 13:28:02;;;;;;;1.87;0.80;;;;;;;;;;5030232;28;20727;-83
2023/10/30 13:30:28;;;;;;;1.97;1.27;;;;;;;;;;5032148;28;20666;-82
2023/10/30 13:32:57;;;;;;;1.90;1.20;;;;;;;;;;5031872;28;20422;-82
2023/10/30 13:35:25;;;;;;;1.40;1.10;;;;;;;;;;5030606;28;20197;-82
2023/10/30 13:37:51;;;;;;;1.47;0.80;;;;;;;;;;5030163;28;20225;-83
2023/10/30 13:40:17;;;;;;;4.93;1.10;;;;;;;;;;5031666;28;20231;-82
2023/10/30 13:42:43;;;;;;;1.67;1.20;;;;;;;;;;5027569;28;20203;-83
2023/10/30 13:45:10;;;;;;;1.20;0.90;;;;;;;;;;5014365;28;20213;-83
2023/10/30 13:47:36;;;;;;;1.30;0.90;;;;;;;;;;5030193;28;20175;-83
2023/10/30 13:50:02;;;;;;;1.30;0.97;;;;;;;;;;5030497;28;20240;-82
2023/10/30 13:52:28;;;;;;;1.17;0.97;;;;;;;;;;5045064;28;20584;-82
2023/10/30 13:54:54;;;;;;;1.40;1.00;;;;;;;;;;5030131;28;20179;-82
2023/10/30 13:57:21;;;;;;;1.77;1.10;;;;;;;;;;5029184;28;20233;-82
2023/10/30 13:59:47;;;;;;;1.60;0.90;;;;;;;;;;5028235;28;20186;-82
2023/10/30 14:02:14;;;;;;;3.37;1.83;;;;;;;;;;5028981;28;20246;-82
2023/10/30 14:04:40;;;;;;;1.30;1.10;;;;;;;;;;5029047;28;20179;-82
2023/10/30 14:07:07;;;;;;;2.10;1.10;;;;;;;;;;5029297;28;20197;-82
2023/10/30 14:09:33;;;;;;;2.03;1.50;;;;;;;;;;5028945;28;20191;-82
2023/10/30 14:11:59;;;;;;;3.07;1.53;;;;;;;;;;5030884;28;20260;-82
2023/10/30 14:14:25;;;;;;;2.07;1.20;;;;;;;;;;5031813;28;20179;-83
2023/10/30 14:16:51;;;;;;;1.50;1.10;;;;;;;;;;5028590;28;20818;-83
2023/10/30 14:19:19;;;;;;;1.40;1.20;;;;;;;;;;5028088;28;20685;-82
2023/10/30 14:21:45;;;;;;;2.27;1.50;;;;;;;;;;5029664;28;20222;-82
2023/10/30 14:24:11;;;;;;;1.80;1.40;;;;;;;;;;5028033;28;20194;-83
2023/10/30 14:26:38;;;;;;;2.53;1.70;;;;;;;;;;5044162;28;20190;-83
2023/10/30 14:29:05;;;;;;;4.13;1.60;;;;;;;;;;5029856;28;20252;-83
2023/10/30 14:31:31;;;;;;;1.63;1.30;;;;;;;;;;5013388;28;20219;-82
2023/10/30 14:33:57;;;;;;;2.70;1.30;;;;;;;;;;5029307;28;20864;-82
2023/10/30 14:36:23;;;;;;;1.20;1.10;;;;;;;;;;5029461;28;20202;-83
2023/10/30 14:38:50;;;;;;;2.33;1.40;;;;;;;;;;5012943;28;20182;-82
2023/10/30 14:41:16;;;;;;;2.00;1.23;;;;;;;;;;5034438;28;20218;-82